createdAt,value
2018-02-19T00:00:11.236Z,64.77
2018-02-19T00:02:38.724Z,65.34
2018-02-19T00:05:06.276Z,65.58
2018-02-19T00:07:33.786Z,65.37
2018-02-19T00:10:01.264Z,65.03
2018-02-19T00:12:28.784Z,64.85
2018-02-19T00:14:56.267Z,64.98
2018-02-19T00:17:23.777Z,64.61
2018-02-19T00:19:51.267Z,64.47
2018-02-19T00:22:19.400Z,64.71
2018-02-19T00:24:46.941Z,64.38
2018-02-19T00:27:14.491Z,64.73
2018-02-19T00:29:42.088Z,65.43
2018-02-19T00:32:09.627Z,64.73
2018-02-19T00:34:37.198Z,65.70
2018-02-19T00:37:04.695Z,65.51
2018-02-19T00:39:32.231Z,65.14
2018-02-19T00:41:59.768Z,63.35
2018-02-19T00:44:27.333Z,63.56
2018-02-19T00:46:54.841Z,64.77
2018-02-19T00:49:22.413Z,65.51
2018-02-19T00:51:50.008Z,65.80
2018-02-19T00:54:17.491Z,66.53
2018-02-19T00:56:45.688Z,66.53
2018-02-19T00:59:13.212Z,66.42
2018-02-19T01:01:40.755Z,66.22
2018-02-19T01:04:08.352Z,66.16
2018-02-19T01:06:35.866Z,66.26
2018-02-19T01:09:03.448Z,66.42
2018-02-19T01:11:31.783Z,66.02
2018-02-19T01:13:59.301Z,65.86
2018-02-19T01:16:27.423Z,65.92
2018-02-19T01:18:54.942Z,65.58
2018-02-19T01:21:22.483Z,65.76
2018-02-19T01:23:50.029Z,66.16
2018-02-19T01:26:17.527Z,66.07
2018-02-19T01:28:45.027Z,66.47
2018-02-19T01:31:12.540Z,66.57
2018-02-19T01:33:40.038Z,66.39
2018-02-19T01:36:07.536Z,66.33
2018-02-19T01:38:35.013Z,66.67
2018-02-19T01:41:02.537Z,66.77
2018-02-19T01:43:30.026Z,67.19
2018-02-19T01:45:57.527Z,67.03
2018-02-19T01:48:25.104Z,67.08
2018-02-19T01:50:52.593Z,67.19
2018-02-19T01:53:20.106Z,66.74
2018-02-19T01:55:47.597Z,66.78
2018-02-19T01:58:15.114Z,66.45
2018-02-19T02:00:42.650Z,66.27
2018-02-19T02:03:10.159Z,66.29
2018-02-19T02:05:37.656Z,66.10
2018-02-19T02:08:05.175Z,65.93
2018-02-19T02:10:32.658Z,66.13
2018-02-19T02:13:00.221Z,66.15
2018-02-19T02:15:27.728Z,65.78
2018-02-19T02:17:55.225Z,65.81
2018-02-19T02:20:22.879Z,65.88
2018-02-19T02:22:51.078Z,66.07
2018-02-19T02:25:18.617Z,65.90
2018-02-19T02:27:46.097Z,65.58
2018-02-19T02:30:13.603Z,65.54
2018-02-19T02:32:41.088Z,65.65
2018-02-19T02:35:08.598Z,65.16
2018-02-19T02:37:36.123Z,65.23
2018-02-19T02:40:03.603Z,65.07
2018-02-19T02:42:31.122Z,65.06
2018-02-19T02:44:58.644Z,65.01
2018-02-19T02:47:26.172Z,65.31
2018-02-19T02:49:53.696Z,64.88
2018-02-19T02:52:21.201Z,64.69
2018-02-19T02:54:48.683Z,64.88
2018-02-19T02:57:16.199Z,64.49
2018-02-19T02:59:43.773Z,64.48
2018-02-19T03:02:11.263Z,64.22
2018-02-19T03:04:38.980Z,64.25
2018-02-19T03:07:06.634Z,64.47
2018-02-19T03:09:34.143Z,64.41
2018-02-19T03:12:01.644Z,63.24
2018-02-19T03:14:29.730Z,63.00
2018-02-19T03:16:57.220Z,63.57
2018-02-19T03:19:24.871Z,63.70
2018-02-19T03:21:52.449Z,63.64
2018-02-19T03:24:19.987Z,63.45
2018-02-19T03:26:47.602Z,63.23
2018-02-19T03:29:15.111Z,63.47
2018-02-19T03:31:42.629Z,62.51
2018-02-19T03:34:10.116Z,62.07
2018-02-19T03:36:37.631Z,62.37
2018-02-19T03:39:05.227Z,62.54
2018-02-19T03:41:32.751Z,62.69
2018-02-19T03:44:00.264Z,62.66
2018-02-19T03:46:27.783Z,62.35
2018-02-19T03:48:55.299Z,62.42
2018-02-19T03:51:22.783Z,62.67
2018-02-19T03:53:50.301Z,62.85
2018-02-19T03:56:17.786Z,62.46
2018-02-19T03:58:45.403Z,62.35
2018-02-19T04:01:12.885Z,62.29
2018-02-19T04:03:40.425Z,62.47
2018-02-19T04:06:07.975Z,62.66
2018-02-19T04:08:35.562Z,62.77
2018-02-19T04:11:03.205Z,63.22
2018-02-19T04:13:32.098Z,63.39
2018-02-19T04:15:59.635Z,63.66
2018-02-19T04:18:27.129Z,63.41
2018-02-19T04:20:54.844Z,63.03
2018-02-19T04:23:22.339Z,62.81
2018-02-19T04:25:49.844Z,62.83
2018-02-19T04:28:17.360Z,62.83
2018-02-19T04:30:44.870Z,62.36
2018-02-19T04:33:12.428Z,62.64
2018-02-19T04:35:40.049Z,62.70
2018-02-19T04:38:07.701Z,62.73
2018-02-19T04:40:35.214Z,62.62
2018-02-19T04:43:07.339Z,61.91
2018-02-19T04:48:44.994Z,62.39
2018-02-19T04:51:12.491Z,63.02
2018-02-19T04:53:39.977Z,63.37
2018-02-19T04:56:07.683Z,63.78
2018-02-19T04:58:35.279Z,63.90
2018-02-19T05:01:02.892Z,63.55
2018-02-19T05:03:30.476Z,62.73
2018-02-19T05:05:58.015Z,63.12
2018-02-19T05:08:25.690Z,63.77
2018-02-19T05:10:57.205Z,64.04
2018-02-19T05:13:24.811Z,63.46
2018-02-19T05:15:52.971Z,63.44
2018-02-19T05:18:20.549Z,63.89
2018-02-19T05:20:48.046Z,63.96
2018-02-19T05:23:15.660Z,63.86
2018-02-19T05:25:43.143Z,64.10
2018-02-19T05:28:10.645Z,63.74
2018-02-19T05:30:38.177Z,63.67
2018-02-19T05:33:05.674Z,63.51
2018-02-19T05:35:33.165Z,63.63
2018-02-19T05:38:00.704Z,63.08
2018-02-19T05:40:28.258Z,63.36
2018-02-19T05:42:55.767Z,63.54
2018-02-19T05:45:23.421Z,64.30
2018-02-19T05:47:50.949Z,64.31
2018-02-19T05:50:18.683Z,64.09
2018-02-19T05:52:46.246Z,64.46
2018-02-19T05:55:13.761Z,64.83
2018-02-19T05:57:41.439Z,64.78
2018-02-19T06:00:08.923Z,64.66
2018-02-19T06:02:36.444Z,64.60
2018-02-19T06:05:03.933Z,64.69
2018-02-19T06:07:32.114Z,65.09
2018-02-19T06:09:59.635Z,65.54
2018-02-19T06:12:27.175Z,65.40
2018-02-19T06:14:54.647Z,65.24
2018-02-19T06:17:22.157Z,64.73
2018-02-19T06:19:49.747Z,64.74
2018-02-19T06:22:17.250Z,64.69
2018-02-19T06:24:44.894Z,64.62
2018-02-19T06:27:12.564Z,64.37
2018-02-19T06:29:40.074Z,64.32
2018-02-19T06:32:07.565Z,64.43
2018-02-19T06:34:35.071Z,64.75
2018-02-19T06:37:02.584Z,64.66
2018-02-19T06:39:30.133Z,64.61
2018-02-19T06:41:57.726Z,64.22
2018-02-19T06:44:25.226Z,64.46
2018-02-19T06:46:52.724Z,64.50
2018-02-19T06:49:20.206Z,64.01
2018-02-19T06:51:47.729Z,64.42
2018-02-19T06:54:15.208Z,64.84
2018-02-19T06:56:42.699Z,64.89
2018-02-19T07:01:43.883Z,64.54
2018-02-19T07:04:11.523Z,64.74
2018-02-19T07:06:39.011Z,64.65
2018-02-19T07:11:40.262Z,64.77
2018-02-19T07:14:07.796Z,64.79
2018-02-19T07:16:35.310Z,64.39
2018-02-19T07:19:09.742Z,64.15
2018-02-19T07:21:38.108Z,63.86
2018-02-19T07:24:05.727Z,64.13
2018-02-19T07:26:33.343Z,64.34
2018-02-19T07:29:00.819Z,64.24
2018-02-19T07:31:28.557Z,64.02
2018-02-19T07:33:56.106Z,64.40
2018-02-19T07:36:24.724Z,64.45
2018-02-19T07:38:52.249Z,64.68
2018-02-19T07:41:19.854Z,64.55
2018-02-19T07:43:47.439Z,64.46
2018-02-19T07:46:14.987Z,64.13
2018-02-19T07:48:42.572Z,63.77
2018-02-19T07:51:10.087Z,63.73
2018-02-19T07:53:41.642Z,63.15
2018-02-19T07:56:09.278Z,62.68
2018-02-19T07:58:36.784Z,63.10
2018-02-19T08:01:04.433Z,63.31
2018-02-19T08:03:31.929Z,63.89
2018-02-19T08:05:59.443Z,63.93
2018-02-19T08:08:26.930Z,64.11
2018-02-19T08:10:54.527Z,63.60
2018-02-19T08:13:22.084Z,63.59
2018-02-19T08:15:49.678Z,63.26
2018-02-19T08:18:18.029Z,63.41
2018-02-19T08:20:45.475Z,63.71
2018-02-19T08:23:12.979Z,64.01
2018-02-19T08:25:40.474Z,63.35
2018-02-19T08:28:07.984Z,62.92
2018-02-19T08:30:35.608Z,62.92
2018-02-19T08:33:03.097Z,62.67
2018-02-19T08:35:30.695Z,62.36
2018-02-19T08:37:58.275Z,61.70
2018-02-19T08:40:25.834Z,62.34
2018-02-19T08:42:53.323Z,62.27
2018-02-19T08:45:20.844Z,62.77
2018-02-19T08:47:48.323Z,62.66
2018-02-19T08:50:15.857Z,62.93
2018-02-19T08:52:43.361Z,63.10
2018-02-19T08:55:10.870Z,62.78
2018-02-19T08:57:38.363Z,62.33
2018-02-19T09:00:05.853Z,62.33
2018-02-19T09:02:33.466Z,62.72
2018-02-19T09:05:01.100Z,62.12
2018-02-19T09:07:29.525Z,62.26
2018-02-19T09:09:57.016Z,62.19
2018-02-19T09:12:24.571Z,62.42
2018-02-19T09:14:52.173Z,62.91
2018-02-19T09:17:19.738Z,62.52
2018-02-19T09:19:47.380Z,62.50
2018-02-19T09:22:14.908Z,62.43
2018-02-19T09:24:42.408Z,62.33
2018-02-19T09:27:09.898Z,62.57
2018-02-19T09:29:37.503Z,61.78
2018-02-19T09:32:04.976Z,61.88
2018-02-19T09:34:32.732Z,61.66
2018-02-19T09:37:00.228Z,61.65
2018-02-19T09:39:28.040Z,61.18
2018-02-19T09:41:55.624Z,62.09
2018-02-19T09:44:23.214Z,61.78
2018-02-19T09:46:50.763Z,61.96
2018-02-19T09:49:18.257Z,61.54
2018-02-19T09:51:45.934Z,59.66
2018-02-19T09:54:13.611Z,59.96
2018-02-19T09:56:41.276Z,60.61
2018-02-19T09:59:08.820Z,60.34
2018-02-19T10:01:36.357Z,60.41
2018-02-19T10:04:03.862Z,60.65
2018-02-19T10:06:31.394Z,60.28
2018-02-19T10:08:58.898Z,60.03
2018-02-19T10:11:26.421Z,59.89
2018-02-19T10:13:53.931Z,60.08
2018-02-19T10:16:21.428Z,59.77
2018-02-19T10:18:49.021Z,59.52
2018-02-19T10:21:16.543Z,58.65
2018-02-19T10:23:44.059Z,58.02
2018-02-19T10:26:11.544Z,57.82
2018-02-19T10:28:39.099Z,57.37
2018-02-19T10:31:06.679Z,57.42
2018-02-19T10:33:34.172Z,58.44
2018-02-19T10:36:01.698Z,57.55
2018-02-19T10:38:29.315Z,56.50
2018-02-19T10:40:56.904Z,56.93
2018-02-19T10:43:24.517Z,57.19
2018-02-19T10:45:52.114Z,56.97
2018-02-19T10:48:19.645Z,56.82
2018-02-19T10:50:47.196Z,57.11
2018-02-19T10:53:14.806Z,57.25
2018-02-19T10:55:42.290Z,55.75
2018-02-19T10:58:09.811Z,56.16
2018-02-19T11:00:43.006Z,56.02
2018-02-19T11:03:10.528Z,56.13
2018-02-19T11:05:38.011Z,56.52
2018-02-19T11:08:05.531Z,55.90
2018-02-19T11:10:33.049Z,56.14
2018-02-19T11:13:00.580Z,55.99
2018-02-19T11:15:28.067Z,56.05
2018-02-19T11:17:55.647Z,55.70
2018-02-19T11:20:23.161Z,55.36
2018-02-19T11:22:50.766Z,55.90
2018-02-19T11:25:18.321Z,56.18
2018-02-19T11:27:45.960Z,55.00
2018-02-19T11:30:13.530Z,55.37
2018-02-19T11:32:41.021Z,54.54
2018-02-19T11:35:08.640Z,55.19
2018-02-19T11:37:36.265Z,56.03
2018-02-19T11:40:03.767Z,55.80
2018-02-19T11:42:31.488Z,55.32
2018-02-19T11:44:59.048Z,55.37
2018-02-19T11:47:26.656Z,55.54
2018-02-19T11:49:54.203Z,55.38
2018-02-19T11:52:21.724Z,55.51
2018-02-19T11:54:49.209Z,54.95
2018-02-19T11:57:16.766Z,54.56
2018-02-19T11:59:44.434Z,54.81
2018-02-19T12:02:11.927Z,54.52
2018-02-19T12:04:39.605Z,54.75
2018-02-19T12:07:07.091Z,54.75
2018-02-19T12:09:34.648Z,53.79
2018-02-19T12:12:02.141Z,54.22
2018-02-19T12:14:30.357Z,54.65
2018-02-19T12:16:57.857Z,54.46
2018-02-19T12:19:25.436Z,54.21
2018-02-19T12:21:52.961Z,53.50
2018-02-19T12:24:20.626Z,53.79
2018-02-19T12:26:48.156Z,53.22
2018-02-19T12:29:15.726Z,53.61
2018-02-19T12:31:43.339Z,53.55
2018-02-19T12:34:10.919Z,54.04
2018-02-19T12:36:38.437Z,53.24
2018-02-19T12:39:06.025Z,52.35
2018-02-19T12:41:33.554Z,52.48
2018-02-19T12:44:01.099Z,52.19
2018-02-19T12:46:28.610Z,51.74
2018-02-19T12:48:56.114Z,51.87
2018-02-19T12:51:23.600Z,52.25
2018-02-19T12:53:51.217Z,52.12
2018-02-19T12:56:18.724Z,53.03
2018-02-19T12:58:46.242Z,53.21
2018-02-19T13:01:13.729Z,53.62
2018-02-19T13:03:41.372Z,53.38
2018-02-19T13:06:08.862Z,52.77
2018-02-19T13:08:36.405Z,52.26
2018-02-19T13:11:03.900Z,52.30
2018-02-19T13:13:31.397Z,52.99
2018-02-19T13:15:59.105Z,53.00
2018-02-19T13:18:26.611Z,53.11
2018-02-19T13:20:54.144Z,53.15
2018-02-19T13:23:21.642Z,52.61
2018-02-19T13:25:49.286Z,52.71
2018-02-19T13:28:16.790Z,52.98
2018-02-19T13:30:44.292Z,53.15
2018-02-19T13:33:11.810Z,53.50
2018-02-19T13:35:39.402Z,52.25
2018-02-19T13:38:07.524Z,53.01
2018-02-19T13:40:35.020Z,53.64
2018-02-19T13:43:02.527Z,54.18
2018-02-19T13:45:30.120Z,53.87
2018-02-19T13:47:57.640Z,53.92
2018-02-19T13:50:25.140Z,53.41
2018-02-19T13:52:52.728Z,54.07
2018-02-19T13:55:20.256Z,54.22
2018-02-19T13:57:47.902Z,54.17
2018-02-19T14:00:15.520Z,54.67
2018-02-19T14:02:43.220Z,55.08
2018-02-19T14:05:10.753Z,54.70
2018-02-19T14:07:38.286Z,54.40
2018-02-19T14:10:05.830Z,54.01
2018-02-19T14:12:33.324Z,53.97
2018-02-19T14:15:00.846Z,54.16
2018-02-19T14:17:28.397Z,54.16
2018-02-19T14:19:55.939Z,54.39
2018-02-19T14:22:23.486Z,54.60
2018-02-19T14:24:51.121Z,53.99
2018-02-19T14:27:18.646Z,54.45
2018-02-19T14:29:46.160Z,53.45
2018-02-19T14:32:14.271Z,54.19
2018-02-19T14:34:41.790Z,54.46
2018-02-19T14:37:09.451Z,54.82
2018-02-19T14:39:37.967Z,54.78
2018-02-19T14:42:05.559Z,53.99
2018-02-19T14:44:33.111Z,53.86
2018-02-19T14:47:00.729Z,54.11
2018-02-19T14:49:28.404Z,53.57
2018-02-19T14:51:55.914Z,54.08
2018-02-19T14:54:23.555Z,54.49
2018-02-19T14:56:51.102Z,54.41
2018-02-19T14:59:18.917Z,54.60
2018-02-19T15:01:46.279Z,54.60
2018-02-19T15:04:13.808Z,54.64
2018-02-19T15:06:41.381Z,54.13
2018-02-19T15:09:08.874Z,54.09
2018-02-19T15:11:36.399Z,54.22
2018-02-19T15:14:03.892Z,54.14
2018-02-19T15:16:32.201Z,54.42
2018-02-19T15:18:59.773Z,53.82
2018-02-19T15:21:27.302Z,54.04
2018-02-19T15:23:54.833Z,54.09
2018-02-19T15:26:22.334Z,54.31
2018-02-19T15:28:49.856Z,54.07
2018-02-19T15:31:17.396Z,54.10
2018-02-19T15:33:44.993Z,54.28
2018-02-19T15:36:12.615Z,54.59
2018-02-19T15:38:40.132Z,54.28
2018-02-19T15:41:07.719Z,54.40
2018-02-19T15:43:35.258Z,54.21
2018-02-19T15:46:02.754Z,54.86
2018-02-19T15:48:30.296Z,54.55
2018-02-19T15:50:57.839Z,54.21
2018-02-19T15:53:25.371Z,54.04
2018-02-19T15:55:53.062Z,54.26
2018-02-19T15:58:20.576Z,54.42
2018-02-19T16:00:48.072Z,54.65
2018-02-19T16:03:15.654Z,54.46
2018-02-19T16:05:43.191Z,54.78
2018-02-19T16:08:10.767Z,54.70
2018-02-19T16:10:38.923Z,54.88
2018-02-19T16:13:06.430Z,54.68
2018-02-19T16:15:33.963Z,55.06
2018-02-19T16:18:01.515Z,55.00
2018-02-19T16:20:29.043Z,55.14
2018-02-19T16:22:56.595Z,55.99
2018-02-19T16:25:24.118Z,55.89
2018-02-19T16:27:51.645Z,56.24
2018-02-19T16:30:19.697Z,56.48
2018-02-19T16:32:47.222Z,56.60
2018-02-19T16:35:14.731Z,56.75
2018-02-19T16:37:42.250Z,56.82
2018-02-19T16:40:09.818Z,57.08
2018-02-19T16:42:37.373Z,56.12
2018-02-19T16:45:05.003Z,56.40
2018-02-19T16:47:32.621Z,56.50
2018-02-19T16:50:00.200Z,56.85
2018-02-19T16:52:27.795Z,56.99
2018-02-19T16:54:55.343Z,57.02
2018-02-19T16:57:22.924Z,57.31
2018-02-19T16:59:50.450Z,57.39
2018-02-19T17:02:17.951Z,57.86
2018-02-19T17:04:45.465Z,57.81
2018-02-19T17:07:13.546Z,57.72
2018-02-19T17:09:41.079Z,57.83
2018-02-19T17:12:08.745Z,57.85
2018-02-19T17:14:36.237Z,58.05
2018-02-19T17:17:03.750Z,58.35
2018-02-19T17:19:31.235Z,58.69
2018-02-19T17:21:58.856Z,59.01
2018-02-19T17:24:26.385Z,59.26
2018-02-19T17:26:54.498Z,59.37
2018-02-19T17:29:22.031Z,59.49
2018-02-19T17:31:49.589Z,59.38
2018-02-19T17:34:17.100Z,59.76
2018-02-19T17:36:44.781Z,59.83
2018-02-19T17:39:12.297Z,60.20
2018-02-19T17:41:39.791Z,59.94
2018-02-19T17:44:07.334Z,59.91
2018-02-19T17:46:34.861Z,60.20
2018-02-19T17:49:02.389Z,60.03
2018-02-19T17:51:29.894Z,60.05
2018-02-19T17:53:57.419Z,60.50
2018-02-19T17:56:25.187Z,60.36
2018-02-19T17:58:52.854Z,60.76
2018-02-19T18:01:20.519Z,60.94
2018-02-19T18:03:48.040Z,61.24
2018-02-19T18:06:15.581Z,61.48
2018-02-19T18:08:43.182Z,61.65
2018-02-19T18:11:10.721Z,61.67
2018-02-19T18:13:38.310Z,61.81
2018-02-19T18:16:05.849Z,61.88
2018-02-19T18:18:33.458Z,61.88
2018-02-19T18:21:00.964Z,62.21
2018-02-19T18:23:28.492Z,62.09
2018-02-19T18:25:56.886Z,61.95
2018-02-19T18:28:24.370Z,61.70
2018-02-19T18:30:51.906Z,61.51
2018-02-19T18:33:19.404Z,61.25
2018-02-19T18:35:46.940Z,61.13
2018-02-19T18:38:14.450Z,61.06
2018-02-19T18:40:41.981Z,61.03
2018-02-19T18:43:09.480Z,61.21
2018-02-19T18:45:37.051Z,61.01
2018-02-19T18:48:04.584Z,60.77
2018-02-19T18:50:32.121Z,61.09
2018-02-19T18:52:59.671Z,61.18
2018-02-19T18:55:27.160Z,61.14
2018-02-19T18:57:54.710Z,61.01
2018-02-19T19:00:22.334Z,61.26
2018-02-19T19:02:49.851Z,61.65
2018-02-19T19:05:17.368Z,61.75
2018-02-19T19:07:56.664Z,61.96
2018-02-19T19:13:27.490Z,62.79
2018-02-19T19:15:55.038Z,62.93
2018-02-19T19:18:22.674Z,63.08
2018-02-19T19:20:50.203Z,63.50
2018-02-19T19:23:17.855Z,63.22
2018-02-19T19:25:45.420Z,63.32
2018-02-19T19:28:12.961Z,63.33
2018-02-19T19:30:40.518Z,63.23
2018-02-19T19:33:08.009Z,63.06
2018-02-19T19:35:35.573Z,63.25
2018-02-19T19:38:03.093Z,63.32
2018-02-19T19:40:30.601Z,63.52
2018-02-19T19:42:58.137Z,63.77
2018-02-19T19:45:26.272Z,64.05
2018-02-19T19:47:54.027Z,63.83
2018-02-19T19:50:21.559Z,63.96
2018-02-19T19:52:49.086Z,63.70
2018-02-19T19:55:16.602Z,63.63
2018-02-19T19:57:44.131Z,63.47
2018-02-19T20:00:11.644Z,63.59
2018-02-19T20:02:39.170Z,63.60
2018-02-19T20:05:06.701Z,63.19
2018-02-19T20:07:34.185Z,63.27
2018-02-19T20:10:01.777Z,63.35
2018-02-19T20:12:29.305Z,63.21
2018-02-19T20:14:56.817Z,63.40
2018-02-19T20:17:24.342Z,63.47
2018-02-19T20:19:51.919Z,63.34
2018-02-19T20:22:19.442Z,63.43
2018-02-19T20:24:46.951Z,63.54
2018-02-19T20:27:14.467Z,63.76
2018-02-19T20:29:42.190Z,63.37
2018-02-19T20:32:09.805Z,63.41
2018-02-19T20:34:37.341Z,63.38
2018-02-19T20:37:04.867Z,63.31
2018-02-19T20:39:32.543Z,62.93
2018-02-19T20:42:00.102Z,63.03
2018-02-19T20:44:27.647Z,63.27
2018-02-19T20:46:55.159Z,63.24
2018-02-19T20:49:22.711Z,63.10
2018-02-19T20:51:50.215Z,63.30
2018-02-19T20:54:17.713Z,63.18
2018-02-19T20:56:45.235Z,63.54
2018-02-19T20:59:12.752Z,63.55
2018-02-19T21:01:40.329Z,63.20
2018-02-19T21:04:07.872Z,62.90
2018-02-19T21:06:35.407Z,63.16
2018-02-19T21:09:02.992Z,63.05
2018-02-19T21:11:30.499Z,63.31
2018-02-19T21:13:58.023Z,63.34
2018-02-19T21:16:26.168Z,63.50
2018-02-19T21:18:53.689Z,63.41
2018-02-19T21:21:21.202Z,63.08
2018-02-19T21:23:48.876Z,62.99
2018-02-19T21:26:16.416Z,62.97
2018-02-19T21:28:43.978Z,63.25
2018-02-19T21:31:11.564Z,63.07
2018-02-19T21:33:39.070Z,63.51
2018-02-19T21:36:06.709Z,63.36
2018-02-19T21:38:34.208Z,63.26
2018-02-19T21:41:05.556Z,63.35
2018-02-19T21:43:33.066Z,63.40
2018-02-19T21:46:00.601Z,63.27
2018-02-19T21:48:28.154Z,63.31
2018-02-19T21:50:55.656Z,63.28
2018-02-19T21:53:23.183Z,63.28
2018-02-19T21:55:50.666Z,62.71
2018-02-19T21:58:18.174Z,62.96
2018-02-19T22:00:45.661Z,62.86
2018-02-19T22:03:13.239Z,62.54
2018-02-19T22:05:40.800Z,62.37
2018-02-19T22:08:08.333Z,62.71
2018-02-19T22:10:35.838Z,62.70
2018-02-19T22:13:03.387Z,62.55
2018-02-19T22:15:31.044Z,62.53
2018-02-19T22:17:58.678Z,62.18
2018-02-19T22:20:26.283Z,62.59
2018-02-19T22:22:53.867Z,62.65
2018-02-19T22:25:21.529Z,62.67
2018-02-19T22:27:49.065Z,62.66
2018-02-19T22:30:16.584Z,62.81
2018-02-19T22:32:44.098Z,62.43
2018-02-19T22:35:11.601Z,62.39
2018-02-19T22:37:39.098Z,62.78
2018-02-19T22:40:06.608Z,63.00
2018-02-19T22:42:34.139Z,63.11
2018-02-19T22:45:01.653Z,62.78
2018-02-19T22:47:29.131Z,62.94
2018-02-19T22:49:56.645Z,63.15
2018-02-19T22:52:24.150Z,63.00
2018-02-19T22:54:52.496Z,62.96
2018-02-19T22:57:20.175Z,63.17
2018-02-19T22:59:47.775Z,62.92
2018-02-19T23:02:15.285Z,63.46
2018-02-19T23:04:42.812Z,63.18
2018-02-19T23:07:10.407Z,63.32
2018-02-19T23:09:38.213Z,63.71
2018-02-19T23:12:05.736Z,64.11
2018-02-19T23:14:33.248Z,63.96
2018-02-19T23:17:00.774Z,63.77
2018-02-19T23:19:28.303Z,63.71
2018-02-19T23:21:55.821Z,63.71
2018-02-19T23:24:23.345Z,63.74
2018-02-19T23:26:50.864Z,63.68
2018-02-19T23:29:18.374Z,63.51
2018-02-19T23:31:46.486Z,63.45
2018-02-19T23:34:14.154Z,63.38
2018-02-19T23:36:41.674Z,63.32
2018-02-19T23:39:09.658Z,63.05
2018-02-19T23:41:37.515Z,63.05
2018-02-19T23:44:05.075Z,63.01
2018-02-19T23:46:33.237Z,63.02
2018-02-19T23:49:00.742Z,63.14
2018-02-19T23:51:28.246Z,63.17
2018-02-19T23:53:55.761Z,63.12
2018-02-19T23:56:23.282Z,63.16
2018-02-19T23:58:50.799Z,63.12
